AirNav   ATP
 
 630 users online  

33XA
(formerly T33)
Poetry Landing Airport
Royse City, Texas, USA

GOING TO ROYSE CITY?


FAA INFORMATION EFFECTIVE 13 SEPTEMBER 2018

Location

FAA Identifier: 33XA
Lat/Long: 32-51-25.0400N / 096-18-29.8450W
32-51.417333N / 096-18.497417W
32.8569556 / -96.3082903
(estimated)
Elevation: 555 ft. / 169 m (estimated)
Variation: 06E (1995)
From city: 9 miles S of ROYSE CITY, TX
Time zone: UTC -5 (UTC -6 during Standard Time)
Zip code: 75189

Airport Operations

Airport use: Private use. Permission required prior to landing
Activation date: 10/1996
Control tower: no
ARTCC: FORT WORTH CENTER
FSS: FORT WORTH FLIGHT SERVICE STATION
Attendance: UNATNDD
Segmented circle: no

Airport Communications

CTAF/UNICOM: 122.7
WX AWOS-3 at F46 (8 nm NW): 121.25 (972-772-6699)
WX ASOS at TRL (9 nm S): 119.275 (972-551-1334)
WX AWOS-3 at HQZ (13 nm SW): 118.175 (972-222-7631)
WX AWOS-3 at GVT (18 nm NE): 133.425 (903-455-7703)

Nearby radio navigation aids

VOR radial/distance  VOR name  Freq  Var
CVEr088/30.1COWBOY VOR/DME116.2006E
TTTr085/36.9MAVERICK VOR/DME113.1006E

 
NDB name  Hdg/Dist  Freq  Var  ID
TRAVIS327/6.526006EAVZ .- ...- --..
CADDO MILLS189/11.431606EMII -- .. ..
MESQUITE073/11.524803EPQF .--. --.- ..-.
MELISA147/28.142103EVLY ...- .-.. -.--

Airport Services

Runway Information

Runway 4/22

Dimensions: 2800 x 40 ft. / 853 x 12 m
Surface: dirt, in poor condition
RY OVERGROWN WITH 2-3 FT WEEDS & GRASS; LARGE POTHOLES, TIRE RUTS IN RY GREATER THAN 12 INCHES DEEP.
RUNWAY 4  RUNWAY 22
Latitude: 32-51.254333N32-51.580333N
Longitude: 096-18.691167W096-18.303667W
Elevation: 541.0 ft.537.0 ft.
Traffic pattern: leftright
Runway heading: 039 magnetic, 045 true219 magnetic, 225 true
Obstructions: 10 ft. trees, 200 ft. from runway
+10 FT TREES 70 FT ON EXTDD CNTRLN, +4 FT FENCE 10 FT ON CNTRLN.
40 ft. trees, 200 ft. from runway
+40 FT TREES 125 FT ON EXTDD CNTRLN.

Airport Ownership and Management from official FAA records

Ownership: Privately-owned
Owner: RIVES AIRPARK, LLC.
6240 PINON TRAIL
ROYCE CITY, TX 75187
Phone 972-741-1779
Manager: MARK CLINE
6240 PINON TRAIL
ROYCE CITY, TX 75187
Phone 972-741-1779

Additional Remarks

NO LINE OF SIGHT.
AIRPORT ACCESS GATE LOCKED
RY 04/22 NO MARKINGS ARE VISIBLE.
ARPT UNSUITABLE FOR ACFT.
AIRPORT UNSAFE. DO NOT USE.

Instrument Procedures

There are no published instrument procedures at 33XA.

Some nearby airports with instrument procedures:

F46 - Ralph M Hall/Rockwall Municipal Airport (8 nm NW)
KTRL - Terrell Municipal Airport (9 nm S)
7F3 - Caddo Mills Municipal Airport (11 nm N)
KHQZ - Mesquite Metro Airport (13 nm SW)
KGVT - Majors Airport (18 nm NE)
 
Loc | Ops | Rwys | IFR | FBO | Links
Com | Nav | Svcs | Stats | Notes


 
Area around 33XA (Poetry Landing Airport)
 
Road maps at: MapQuest Bing Google
 
Aerial photo
WARNING: Photo may not be current or correct
Aerial photo of 33XA (Poetry Landing Airport)
Do you have a better or more recent aerial photo of Poetry Landing Airport that you would like to share? If so, please send us your photo.

 
Sectional chart

 
Airport distance calculator
Flying to Poetry Landing Airport? Find the distance to fly.

From to 33XA

Sunrise and sunset
Times for 22-Sep-2018
 Local
(UTC-5)
 Zulu
(UTC)
Morning civil twilight06:5011:50
Sunrise07:1412:14
Sunset19:2200:22
Evening civil twilight19:4600:46

Current date and time
Zulu (UTC)  23-Sep-2018 03:42:45
Local (UTC-5)  22-Sep-2018 22:42:45
 
METAR
KF46 
8nm NW 
230315Z AUTO 06008KT 10SM OVC010 22/22 A2992 RMK AO2 T02200220
KTRL 
9nm S 
230309Z AUTO 21003KT 10SM FEW018 SCT026 23/20 A2992 RMK AO2 T02280200
KHQZ 
13nm SW 
230315Z AUTO 14003KT 10SM OVC013 22/21 A2991 RMK AO1 T02210207
KGVT 
18nm NE 
230250Z AUTO 04003KT 5SM RA OVC006 22/21 A2994 RMK AO2 P0008
TAF
KDAL 
27nm W 
222053Z 2221/2318 36013KT P6SM BKN006 OVC012 FM230200 01012KT 5SM -DZ BR OVC006 FM231600 02009KT 5SM BR OVC012
NOTAMs
Click for the latest NOTAMs
NOTAMs are issued by the DoD/FAA and will open in a separate window not controlled by AirNav.

 

 
 

Would you like to see your business listed on this page?

 If your business provides an interesting product or service to pilots, flight crews, aircraft, or users of the Poetry Landing Airport, you should consider listing it here.  To start the listing process, click on the button below
 
Add a business
 

Other Pages about Poetry Landing Airport

Update a link
 
Copyright © AirNav, LLC. All rights reserved. Privacy Policy  Contact